KDCU/DCU METAR and TAF weather

Enter ICAO airport designator
Station Type Date Time Source
KDCU METAR 2021/05/14 04:53 UTC NOAA

KDCU 140453Z AUTO 02004KT 10SM CLR 12/04 A3027 RMK AO2 SLP247 T01220039


Station Type Date Time Source
KDCU Decoded METAR 2021/05/14 04:53 UTC NOAA

PRYOR FIELD, AL, United States (KDCU) 34-39N 086-57W 176M
May 14, 2021 - 12:53 AM EDT / 2021.05.14 0453 UTC
Wind: from the NNE (020 degrees) at 5 MPH (4 KT):0
Visibility: 10 mile(s):0
Sky conditions: clear
Temperature: 54.0 F (12.2 C)
Dew Point: 39.0 F (3.9 C)
Relative Humidity: 56%
Pressure (altimeter): 30.27 in. Hg (1025 hPa)
ob: KDCU 140453Z AUTO 02004KT 10SM CLR 12/04 A3027 RMK AO2 SLP247 T01220039
cycle: 5

Station Type Date Time Source
KDCU TAF UTC NOAA

Error!

Example: see airport list